sensor_id;sensor_type;location;lat;lon;timestamp;temperature;humidity
21189;DHT22;39071;52.420;20.896;2023-03-14T00:00:59;10.30;56.20
21189;DHT22;39071;52.420;20.896;2023-03-14T00:03:27;10.30;58.90
21189;DHT22;39071;52.420;20.896;2023-03-14T00:05:53;10.20;55.40
21189;DHT22;39071;52.420;20.896;2023-03-14T00:08:19;10.20;49.70
21189;DHT22;39071;52.420;20.896;2023-03-14T00:10:46;10.20;50.40
21189;DHT22;39071;52.420;20.896;2023-03-14T00:13:12;10.20;45.50
21189;DHT22;39071;52.420;20.896;2023-03-14T00:15:38;10.20;43.30
21189;DHT22;39071;52.420;20.896;2023-03-14T00:18:04;10.20;35.40
21189;DHT22;39071;52.420;20.896;2023-03-14T00:20:30;10.20;29.50
21189;DHT22;39071;52.420;20.896;2023-03-14T00:22:55;10.20;25.60
21189;DHT22;39071;52.420;20.896;2023-03-14T00:25:21;10.20;22.60
21189;DHT22;39071;52.420;20.896;2023-03-14T00:27:47;10.10;21.00
21189;DHT22;39071;52.420;20.896;2023-03-14T00:30:15;10.20;16.20
21189;DHT22;39071;52.420;20.896;2023-03-14T00:32:41;10.10;14.30
21189;DHT22;39071;52.420;20.896;2023-03-14T00:35:07;10.10;13.30
21189;DHT22;39071;52.420;20.896;2023-03-14T00:37:33;10.10;8.40
21189;DHT22;39071;52.420;20.896;2023-03-14T00:39:59;10.10;7.70
21189;DHT22;39071;52.420;20.896;2023-03-14T00:42:25;10.10;5.40
21189;DHT22;39071;52.420;20.896;2023-03-14T00:44:51;10.10;1.00
21189;DHT22;39071;52.420;20.896;2023-03-14T00:47:16;10.10;1.00
21189;DHT22;39071;52.420;20.896;2023-03-14T00:49:42;10.10;1.00
21189;DHT22;39071;52.420;20.896;2023-03-14T00:52:09;10.10;1.00
21189;DHT22;39071;52.420;20.896;2023-03-14T00:54:35;10.10;1.00
21189;DHT22;39071;52.420;20.896;2023-03-14T00:57:01;10.10;1.00
21189;DHT22;39071;52.420;20.896;2023-03-14T00:59:27;10.10;1.00
21189;DHT22;39071;52.420;20.896;2023-03-14T01:01:53;10.10;1.00
21189;DHT22;39071;52.420;20.896;2023-03-14T01:04:19;10.10;1.00
21189;DHT22;39071;52.420;20.896;2023-03-14T01:06:45;10.10;1.00
21189;DHT22;39071;52.420;20.896;2023-03-14T01:09:10;10.10;1.00
21189;DHT22;39071;52.420;20.896;2023-03-14T01:11:36;10.00;1.00
21189;DHT22;39071;52.420;20.896;2023-03-14T01:14:03;10.00;1.00
21189;DHT22;39071;52.420;20.896;2023-03-14T01:16:33;10.00;1.00
21189;DHT22;39071;52.420;20.896;2023-03-14T01:18:59;10.00;1.00
21189;DHT22;39071;52.420;20.896;2023-03-14T01:21:28;9.90;1.00
21189;DHT22;39071;52.420;20.896;2023-03-14T01:23:56;9.90;1.00
21189;DHT22;39071;52.420;20.896;2023-03-14T01:26:25;10.00;1.00
21189;DHT22;39071;52.420;20.896;2023-03-14T01:28:54;10.00;1.00
21189;DHT22;39071;52.420;20.896;2023-03-14T01:31:20;9.90;1.00
21189;DHT22;39071;52.420;20.896;2023-03-14T01:33:47;9.80;1.00
21189;DHT22;39071;52.420;20.896;2023-03-14T01:36:13;9.90;1.00
21189;DHT22;39071;52.420;20.896;2023-03-14T01:38:40;9.90;1.00
21189;DHT22;39071;52.420;20.896;2023-03-14T01:41:07;9.80;1.00
21189;DHT22;39071;52.420;20.896;2023-03-14T01:43:33;9.70;1.00
21189;DHT22;39071;52.420;20.896;2023-03-14T01:48:38;9.70;1.00
21189;DHT22;39071;52.420;20.896;2023-03-14T01:51:11;9.70;1.00
21189;DHT22;39071;52.420;20.896;2023-03-14T01:53:39;9.70;1.00
21189;DHT22;39071;52.420;20.896;2023-03-14T01:56:07;9.70;1.00
21189;DHT22;39071;52.420;20.896;2023-03-14T01:58:34;9.60;1.00
21189;DHT22;39071;52.420;20.896;2023-03-14T02:01:03;9.70;1.00
21189;DHT22;39071;52.420;20.896;2023-03-14T02:03:30;9.60;1.00
21189;DHT22;39071;52.420;20.896;2023-03-14T02:06:04;9.60;1.00
21189;DHT22;39071;52.420;20.896;2023-03-14T02:08:31;9.60;1.00
21189;DHT22;39071;52.420;20.896;2023-03-14T02:10:58;9.50;1.00
21189;DHT22;39071;52.420;20.896;2023-03-14T02:13:24;9.50;1.00
21189;DHT22;39071;52.420;20.896;2023-03-14T02:15:50;9.40;1.00
21189;DHT22;39071;52.420;20.896;2023-03-14T02:18:16;9.40;1.00
21189;DHT22;39071;52.420;20.896;2023-03-14T02:21:04;9.30;1.00
21189;DHT22;39071;52.420;20.896;2023-03-14T02:26:14;9.20;1.00
21189;DHT22;39071;52.420;20.896;2023-03-14T02:28:41;9.10;1.00
21189;DHT22;39071;52.420;20.896;2023-03-14T02:31:07;9.10;4.50
21189;DHT22;39071;52.420;20.896;2023-03-14T02:33:35;9.00;9.70
21189;DHT22;39071;52.420;20.896;2023-03-14T02:36:07;9.00;15.00
21189;DHT22;39071;52.420;20.896;2023-03-14T02:39:08;9.00;15.10
21189;DHT22;39071;52.420;20.896;2023-03-14T02:41:37;8.90;21.00
21189;DHT22;39071;52.420;20.896;2023-03-14T02:44:03;8.80;30.30
21189;DHT22;39071;52.420;20.896;2023-03-14T02:46:29;8.80;32.40
21189;DHT22;39071;52.420;20.896;2023-03-14T02:48:58;8.80;32.70
21189;DHT22;39071;52.420;20.896;2023-03-14T02:51:26;8.80;28.60
21189;DHT22;39071;52.420;20.896;2023-03-14T02:53:53;8.80;22.70
21189;DHT22;39071;52.420;20.896;2023-03-14T02:56:18;8.80;21.00
21189;DHT22;39071;52.420;20.896;2023-03-14T02:58:44;8.80;23.30
21189;DHT22;39071;52.420;20.896;2023-03-14T03:01:10;8.70;35.00
21189;DHT22;39071;52.420;20.896;2023-03-14T03:03:36;8.80;20.70
21189;DHT22;39071;52.420;20.896;2023-03-14T03:06:01;8.70;27.60
21189;DHT22;39071;52.420;20.896;2023-03-14T03:08:28;8.70;27.10
21189;DHT22;39071;52.420;20.896;2023-03-14T03:10:54;8.60;34.20
21189;DHT22;39071;52.420;20.896;2023-03-14T03:13:20;8.60;42.90
21189;DHT22;39071;52.420;20.896;2023-03-14T03:15:46;8.60;41.70
21189;DHT22;39071;52.420;20.896;2023-03-14T03:18:12;8.50;48.70
21189;DHT22;39071;52.420;20.896;2023-03-14T03:20:38;8.60;51.80
21189;DHT22;39071;52.420;20.896;2023-03-14T03:23:04;8.50;58.20
21189;DHT22;39071;52.420;20.896;2023-03-14T03:25:30;8.40;62.00
21189;DHT22;39071;52.420;20.896;2023-03-14T03:27:56;8.40;76.40
21189;DHT22;39071;52.420;20.896;2023-03-14T03:30:22;8.30;83.00
21189;DHT22;39071;52.420;20.896;2023-03-14T03:32:47;8.20;92.50
21189;DHT22;39071;52.420;20.896;2023-03-14T03:35:13;8.20;99.90
21189;DHT22;39071;52.420;20.896;2023-03-14T03:37:39;8.20;99.90
21189;DHT22;39071;52.420;20.896;2023-03-14T03:40:06;8.20;99.90
21189;DHT22;39071;52.420;20.896;2023-03-14T03:42:33;8.10;99.90
21189;DHT22;39071;52.420;20.896;2023-03-14T03:45:00;8.10;99.90
21189;DHT22;39071;52.420;20.896;2023-03-14T03:47:26;8.10;99.90
21189;DHT22;39071;52.420;20.896;2023-03-14T03:49:52;8.00;99.90
21189;DHT22;39071;52.420;20.896;2023-03-14T03:52:18;8.00;99.90
21189;DHT22;39071;52.420;20.896;2023-03-14T03:54:44;8.40;99.90
21189;DHT22;39071;52.420;20.896;2023-03-14T03:57:10;7.90;99.90
21189;DHT22;39071;52.420;20.896;2023-03-14T03:59:35;7.80;99.90
21189;DHT22;39071;52.420;20.896;2023-03-14T04:02:01;7.80;99.90
21189;DHT22;39071;52.420;20.896;2023-03-14T04:04:27;7.80;99.90
21189;DHT22;39071;52.420;20.896;2023-03-14T04:06:53;7.80;99.90
21189;DHT22;39071;52.420;20.896;2023-03-14T04:09:18;7.80;99.90
21189;DHT22;39071;52.420;20.896;2023-03-14T04:11:44;7.70;99.90
21189;DHT22;39071;52.420;20.896;2023-03-14T04:14:10;7.80;99.90
21189;DHT22;39071;52.420;20.896;2023-03-14T04:16:36;7.70;99.90
21189;DHT22;39071;52.420;20.896;2023-03-14T04:19:03;7.70;99.90
21189;DHT22;39071;52.420;20.896;2023-03-14T04:21:28;7.70;99.90
21189;DHT22;39071;52.420;20.896;2023-03-14T04:23:54;7.60;99.90
21189;DHT22;39071;52.420;20.896;2023-03-14T04:26:20;7.70;99.90
21189;DHT22;39071;52.420;20.896;2023-03-14T04:28:46;7.60;99.90
21189;DHT22;39071;52.420;20.896;2023-03-14T04:31:14;7.70;99.90
21189;DHT22;39071;52.420;20.896;2023-03-14T04:33:40;7.70;99.90
21189;DHT22;39071;52.420;20.896;2023-03-14T04:36:07;7.60;99.90
21189;DHT22;39071;52.420;20.896;2023-03-14T04:38:33;7.60;99.90
21189;DHT22;39071;52.420;20.896;2023-03-14T04:40:59;7.60;99.90
21189;DHT22;39071;52.420;20.896;2023-03-14T04:43:26;7.70;99.90
21189;DHT22;39071;52.420;20.896;2023-03-14T04:45:56;7.70;99.90
21189;DHT22;39071;52.420;20.896;2023-03-14T04:48:22;7.70;99.90
21189;DHT22;39071;52.420;20.896;2023-03-14T04:50:48;7.70;99.90
21189;DHT22;39071;52.420;20.896;2023-03-14T04:53:15;7.70;99.90
21189;DHT22;39071;52.420;20.896;2023-03-14T04:55:40;7.80;99.90
21189;DHT22;39071;52.420;20.896;2023-03-14T04:58:06;7.80;99.90
21189;DHT22;39071;52.420;20.896;2023-03-14T05:00:32;7.90;99.90
21189;DHT22;39071;52.420;20.896;2023-03-14T05:02:57;7.90;99.90
21189;DHT22;39071;52.420;20.896;2023-03-14T05:05:23;7.90;99.90
21189;DHT22;39071;52.420;20.896;2023-03-14T05:07:49;8.00;99.90
21189;DHT22;39071;52.420;20.896;2023-03-14T05:10:15;8.00;95.70
21189;DHT22;39071;52.420;20.896;2023-03-14T05:12:41;8.00;92.10
21189;DHT22;39071;52.420;20.896;2023-03-14T05:15:07;8.00;94.80
21189;DHT22;39071;52.420;20.896;2023-03-14T05:17:33;8.00;91.00
21189;DHT22;39071;52.420;20.896;2023-03-14T05:19:59;8.10;82.60
21189;DHT22;39071;52.420;20.896;2023-03-14T05:22:25;8.10;72.30
21189;DHT22;39071;52.420;20.896;2023-03-14T05:24:50;8.20;52.80
21189;DHT22;39071;52.420;20.896;2023-03-14T05:27:16;8.20;43.40
21189;DHT22;39071;52.420;20.896;2023-03-14T05:29:42;8.20;34.30
21189;DHT22;39071;52.420;20.896;2023-03-14T05:32:07;8.30;28.00
21189;DHT22;39071;52.420;20.896;2023-03-14T05:34:33;8.30;24.00
21189;DHT22;39071;52.420;20.896;2023-03-14T05:36:59;8.40;21.10
21189;DHT22;39071;52.420;20.896;2023-03-14T05:39:25;8.40;9.70
21189;DHT22;39071;52.420;20.896;2023-03-14T05:41:51;8.40;8.10
21189;DHT22;39071;52.420;20.896;2023-03-14T05:44:17;8.50;1.00
21189;DHT22;39071;52.420;20.896;2023-03-14T05:46:43;8.60;1.00
21189;DHT22;39071;52.420;20.896;2023-03-14T05:49:09;8.60;1.00
21189;DHT22;39071;52.420;20.896;2023-03-14T05:51:35;8.60;1.00
21189;DHT22;39071;52.420;20.896;2023-03-14T05:54:00;8.80;1.00
21189;DHT22;39071;52.420;20.896;2023-03-14T05:56:26;9.40;1.00
21189;DHT22;39071;52.420;20.896;2023-03-14T05:58:52;9.70;1.00
21189;DHT22;39071;52.420;20.896;2023-03-14T06:01:17;9.60;1.00
21189;DHT22;39071;52.420;20.896;2023-03-14T06:03:43;9.40;1.00
21189;DHT22;39071;52.420;20.896;2023-03-14T06:06:09;9.20;1.00
21189;DHT22;39071;52.420;20.896;2023-03-14T06:08:34;9.10;1.00
21189;DHT22;39071;52.420;20.896;2023-03-14T06:11:03;9.10;1.00
21189;DHT22;39071;52.420;20.896;2023-03-14T06:13:29;9.10;1.00
21189;DHT22;39071;52.420;20.896;2023-03-14T06:15:54;9.10;1.00
21189;DHT22;39071;52.420;20.896;2023-03-14T06:18:20;9.10;1.00
21189;DHT22;39071;52.420;20.896;2023-03-14T06:20:46;9.30;1.00
21189;DHT22;39071;52.420;20.896;2023-03-14T06:23:11;9.30;1.00
21189;DHT22;39071;52.420;20.896;2023-03-14T06:25:37;10.40;1.00
21189;DHT22;39071;52.420;20.896;2023-03-14T06:28:03;11.30;1.00
21189;DHT22;39071;52.420;20.896;2023-03-14T06:30:30;12.00;1.00
21189;DHT22;39071;52.420;20.896;2023-03-14T06:32:56;11.60;1.00
21189;DHT22;39071;52.420;20.896;2023-03-14T06:35:22;12.00;1.00
21189;DHT22;39071;52.420;20.896;2023-03-14T06:37:48;11.90;1.00
21189;DHT22;39071;52.420;20.896;2023-03-14T06:40:14;14.10;1.00
21189;DHT22;39071;52.420;20.896;2023-03-14T06:42:46;16.40;1.00
21189;DHT22;39071;52.420;20.896;2023-03-14T06:45:12;17.70;1.00
21189;DHT22;39071;52.420;20.896;2023-03-14T06:47:38;17.50;1.00
21189;DHT22;39071;52.420;20.896;2023-03-14T06:50:05;17.90;1.00
21189;DHT22;39071;52.420;20.896;2023-03-14T06:52:31;16.40;1.00
21189;DHT22;39071;52.420;20.896;2023-03-14T06:54:57;16.20;1.00
21189;DHT22;39071;52.420;20.896;2023-03-14T06:57:23;14.80;1.00
21189;DHT22;39071;52.420;20.896;2023-03-14T06:59:48;14.30;1.00
21189;DHT22;39071;52.420;20.896;2023-03-14T07:02:14;13.90;1.00
21189;DHT22;39071;52.420;20.896;2023-03-14T07:04:40;13.20;1.00
21189;DHT22;39071;52.420;20.896;2023-03-14T07:07:06;13.10;1.00
21189;DHT22;39071;52.420;20.896;2023-03-14T07:09:32;13.00;1.00
21189;DHT22;39071;52.420;20.896;2023-03-14T07:11:58;12.70;1.00
21189;DHT22;39071;52.420;20.896;2023-03-14T07:14:24;12.30;1.00
21189;DHT22;39071;52.420;20.896;2023-03-14T07:16:50;12.20;1.00
21189;DHT22;39071;52.420;20.896;2023-03-14T07:19:15;12.00;1.00
21189;DHT22;39071;52.420;20.896;2023-03-14T07:21:41;11.80;1.00
21189;DHT22;39071;52.420;20.896;2023-03-14T07:24:07;11.60;1.00
21189;DHT22;39071;52.420;20.896;2023-03-14T07:26:33;11.50;1.00
21189;DHT22;39071;52.420;20.896;2023-03-14T07:28:59;11.60;1.00
21189;DHT22;39071;52.420;20.896;2023-03-14T07:31:25;11.70;1.00
21189;DHT22;39071;52.420;20.896;2023-03-14T07:33:51;12.00;1.00
21189;DHT22;39071;52.420;20.896;2023-03-14T07:36:17;12.30;1.00
21189;DHT22;39071;52.420;20.896;2023-03-14T07:38:42;12.50;1.00
21189;DHT22;39071;52.420;20.896;2023-03-14T07:41:08;13.00;1.00
21189;DHT22;39071;52.420;20.896;2023-03-14T07:43:34;13.50;1.00
21189;DHT22;39071;52.420;20.896;2023-03-14T07:46:00;13.70;1.00
21189;DHT22;39071;52.420;20.896;2023-03-14T07:48:26;13.70;1.00
21189;DHT22;39071;52.420;20.896;2023-03-14T07:50:54;13.80;1.00
21189;DHT22;39071;52.420;20.896;2023-03-14T07:53:21;14.00;1.00
21189;DHT22;39071;52.420;20.896;2023-03-14T07:55:47;14.00;1.00
21189;DHT22;39071;52.420;20.896;2023-03-14T07:58:14;14.10;1.00
21189;DHT22;39071;52.420;20.896;2023-03-14T08:00:40;14.00;1.00
21189;DHT22;39071;52.420;20.896;2023-03-14T08:03:06;14.10;1.00
21189;DHT22;39071;52.420;20.896;2023-03-14T08:05:35;14.10;1.00
21189;DHT22;39071;52.420;20.896;2023-03-14T08:08:00;14.10;1.00
21189;DHT22;39071;52.420;20.896;2023-03-14T08:10:26;14.30;1.00
21189;DHT22;39071;52.420;20.896;2023-03-14T08:12:55;14.30;1.00
21189;DHT22;39071;52.420;20.896;2023-03-14T08:15:22;14.40;1.00
21189;DHT22;39071;52.420;20.896;2023-03-14T08:17:48;14.60;1.00
21189;DHT22;39071;52.420;20.896;2023-03-14T08:20:17;14.90;1.00
21189;DHT22;39071;52.420;20.896;2023-03-14T08:22:43;14.90;1.00
21189;DHT22;39071;52.420;20.896;2023-03-14T08:25:09;14.80;1.00
21189;DHT22;39071;52.420;20.896;2023-03-14T08:27:35;14.80;1.00
21189;DHT22;39071;52.420;20.896;2023-03-14T08:30:03;14.70;1.00
21189;DHT22;39071;52.420;20.896;2023-03-14T08:32:30;14.50;1.00
21189;DHT22;39071;52.420;20.896;2023-03-14T08:34:56;14.40;1.00
21189;DHT22;39071;52.420;20.896;2023-03-14T08:37:22;14.30;1.00
21189;DHT22;39071;52.420;20.896;2023-03-14T08:39:47;14.30;1.00
21189;DHT22;39071;52.420;20.896;2023-03-14T08:42:13;14.20;1.00
21189;DHT22;39071;52.420;20.896;2023-03-14T08:44:39;14.20;1.00
21189;DHT22;39071;52.420;20.896;2023-03-14T08:47:05;14.30;1.00
21189;DHT22;39071;52.420;20.896;2023-03-14T08:49:31;14.50;1.00
21189;DHT22;39071;52.420;20.896;2023-03-14T08:51:56;14.40;1.00
21189;DHT22;39071;52.420;20.896;2023-03-14T08:54:22;14.40;1.00
21189;DHT22;39071;52.420;20.896;2023-03-14T08:56:48;14.50;1.00
21189;DHT22;39071;52.420;20.896;2023-03-14T08:59:14;14.40;1.00
21189;DHT22;39071;52.420;20.896;2023-03-14T09:01:39;14.30;1.00
21189;DHT22;39071;52.420;20.896;2023-03-14T09:04:05;14.30;1.00
21189;DHT22;39071;52.420;20.896;2023-03-14T09:06:32;14.20;1.00
21189;DHT22;39071;52.420;20.896;2023-03-14T09:08:58;14.30;1.00
21189;DHT22;39071;52.420;20.896;2023-03-14T09:11:23;14.30;1.00
21189;DHT22;39071;52.420;20.896;2023-03-14T09:13:49;14.30;1.00
21189;DHT22;39071;52.420;20.896;2023-03-14T09:16:15;14.50;1.00
21189;DHT22;39071;52.420;20.896;2023-03-14T09:18:41;14.80;1.00
21189;DHT22;39071;52.420;20.896;2023-03-14T09:21:07;14.90;1.00
21189;DHT22;39071;52.420;20.896;2023-03-14T09:23:33;14.90;1.00
21189;DHT22;39071;52.420;20.896;2023-03-14T09:26:00;14.90;1.00
21189;DHT22;39071;52.420;20.896;2023-03-14T09:28:26;15.00;1.00
21189;DHT22;39071;52.420;20.896;2023-03-14T09:30:52;14.80;1.00
21189;DHT22;39071;52.420;20.896;2023-03-14T09:33:18;14.70;1.00
21189;DHT22;39071;52.420;20.896;2023-03-14T09:35:44;14.60;1.00
21189;DHT22;39071;52.420;20.896;2023-03-14T09:38:09;14.50;1.00
21189;DHT22;39071;52.420;20.896;2023-03-14T09:40:36;14.50;1.00
21189;DHT22;39071;52.420;20.896;2023-03-14T09:43:03;14.40;1.00
21189;DHT22;39071;52.420;20.896;2023-03-14T09:45:34;14.40;1.00
21189;DHT22;39071;52.420;20.896;2023-03-14T09:48:03;14.40;1.00
21189;DHT22;39071;52.420;20.896;2023-03-14T09:50:43;14.40;1.00
21189;DHT22;39071;52.420;20.896;2023-03-14T09:53:40;14.40;1.00
21189;DHT22;39071;52.420;20.896;2023-03-14T09:56:14;14.40;1.00
21189;DHT22;39071;52.420;20.896;2023-03-14T09:58:45;14.50;1.00
21189;DHT22;39071;52.420;20.896;2023-03-14T10:01:15;14.60;1.00
21189;DHT22;39071;52.420;20.896;2023-03-14T10:03:44;14.70;1.00
21189;DHT22;39071;52.420;20.896;2023-03-14T10:06:14;14.80;1.00
21189;DHT22;39071;52.420;20.896;2023-03-14T10:08:44;14.80;1.00
21189;DHT22;39071;52.420;20.896;2023-03-14T10:11:15;15.00;1.00
21189;DHT22;39071;52.420;20.896;2023-03-14T10:16:14;14.90;1.00
21189;DHT22;39071;52.420;20.896;2023-03-14T10:18:44;15.00;1.00
21189;DHT22;39071;52.420;20.896;2023-03-14T10:21:30;15.00;1.00
21189;DHT22;39071;52.420;20.896;2023-03-14T10:24:29;15.10;1.00
21189;DHT22;39071;52.420;20.896;2023-03-14T10:26:55;15.40;1.00
21189;DHT22;39071;52.420;20.896;2023-03-14T10:29:21;15.50;1.00
21189;DHT22;39071;52.420;20.896;2023-03-14T10:31:53;15.60;1.00
21189;DHT22;39071;52.420;20.896;2023-03-14T10:34:25;15.70;1.00
21189;DHT22;39071;52.420;20.896;2023-03-14T10:36:57;15.90;1.00
21189;DHT22;39071;52.420;20.896;2023-03-14T10:39:46;15.90;1.00
21189;DHT22;39071;52.420;20.896;2023-03-14T10:42:28;15.90;1.00
21189;DHT22;39071;52.420;20.896;2023-03-14T10:45:30;16.00;1.00
21189;DHT22;39071;52.420;20.896;2023-03-14T10:48:05;16.50;1.00
21189;DHT22;39071;52.420;20.896;2023-03-14T10:50:32;16.80;1.00
21189;DHT22;39071;52.420;20.896;2023-03-14T10:53:02;17.40;1.00
21189;DHT22;39071;52.420;20.896;2023-03-14T10:55:41;17.50;1.00
21189;DHT22;39071;52.420;20.896;2023-03-14T10:58:28;17.70;1.00
21189;DHT22;39071;52.420;20.896;2023-03-14T11:01:03;18.10;1.00
21189;DHT22;39071;52.420;20.896;2023-03-14T11:03:34;17.90;1.00
21189;DHT22;39071;52.420;20.896;2023-03-14T11:06:18;17.70;1.00
21189;DHT22;39071;52.420;20.896;2023-03-14T11:11:46;17.10;1.00
21189;DHT22;39071;52.420;20.896;2023-03-14T11:14:34;16.80;1.00
21189;DHT22;39071;52.420;20.896;2023-03-14T11:17:18;16.60;1.00
21189;DHT22;39071;52.420;20.896;2023-03-14T11:22:37;16.40;1.00
21189;DHT22;39071;52.420;20.896;2023-03-14T11:25:18;16.40;1.00
21189;DHT22;39071;52.420;20.896;2023-03-14T11:28:01;16.10;1.00
21189;DHT22;39071;52.420;20.896;2023-03-14T11:30:46;15.90;1.00
21189;DHT22;39071;52.420;20.896;2023-03-14T11:33:24;15.70;1.00
21189;DHT22;39071;52.420;20.896;2023-03-14T11:36:06;15.60;1.00
21189;DHT22;39071;52.420;20.896;2023-03-14T11:40:59;15.60;1.00
21189;DHT22;39071;52.420;20.896;2023-03-14T11:43:28;15.60;1.00
21189;DHT22;39071;52.420;20.896;2023-03-14T11:45:59;15.60;1.00
21189;DHT22;39071;52.420;20.896;2023-03-14T11:49:01;15.70;1.00
21189;DHT22;39071;52.420;20.896;2023-03-14T11:51:50;15.80;1.00
21189;DHT22;39071;52.420;20.896;2023-03-14T11:54:39;15.90;1.00
21189;DHT22;39071;52.420;20.896;2023-03-14T11:57:16;15.90;1.00
21189;DHT22;39071;52.420;20.896;2023-03-14T12:10:58;15.20;1.00
21189;DHT22;39071;52.420;20.896;2023-03-14T12:13:30;15.20;1.00
21189;DHT22;39071;52.420;20.896;2023-03-14T12:15:59;15.20;1.00
21189;DHT22;39071;52.420;20.896;2023-03-14T12:18:31;15.10;1.00
21189;DHT22;39071;52.420;20.896;2023-03-14T12:21:03;15.20;1.00
21189;DHT22;39071;52.420;20.896;2023-03-14T12:23:53;15.10;1.00
21189;DHT22;39071;52.420;20.896;2023-03-14T12:26:22;15.10;1.00
21189;DHT22;39071;52.420;20.896;2023-03-14T12:44:41;14.30;1.00
21189;DHT22;39071;52.420;20.896;2023-03-14T12:49:42;14.00;1.00
21189;DHT22;39071;52.420;20.896;2023-03-14T12:52:37;13.80;1.00
21189;DHT22;39071;52.420;20.896;2023-03-14T12:55:12;13.60;1.00
21189;DHT22;39071;52.420;20.896;2023-03-14T13:00:21;13.00;1.00
21189;DHT22;39071;52.420;20.896;2023-03-14T13:02:49;12.80;1.00
21189;DHT22;39071;52.420;20.896;2023-03-14T13:05:22;12.70;61.70
21189;DHT22;39071;52.420;20.896;2023-03-14T13:10:28;12.50;99.90
21189;DHT22;39071;52.420;20.896;2023-03-14T13:15:47;12.40;99.90
21189;DHT22;39071;52.420;20.896;2023-03-14T13:18:21;12.40;99.90
21189;DHT22;39071;52.420;20.896;2023-03-14T13:20:58;12.60;1.00
21189;DHT22;39071;52.420;20.896;2023-03-14T13:23:27;12.40;1.00
21189;DHT22;39071;52.420;20.896;2023-03-14T13:25:54;12.40;1.00
21189;DHT22;39071;52.420;20.896;2023-03-14T13:28:20;12.30;1.00
21189;DHT22;39071;52.420;20.896;2023-03-14T13:30:48;12.20;1.00
21189;DHT22;39071;52.420;20.896;2023-03-14T13:33:19;12.30;1.00
21189;DHT22;39071;52.420;20.896;2023-03-14T13:35:57;12.20;1.00
21189;DHT22;39071;52.420;20.896;2023-03-14T13:38:28;12.20;5.80
21189;DHT22;39071;52.420;20.896;2023-03-14T13:40:56;12.00;99.90
21189;DHT22;39071;52.420;20.896;2023-03-14T13:43:29;11.90;99.90
21189;DHT22;39071;52.420;20.896;2023-03-14T13:46:25;11.90;99.90
21189;DHT22;39071;52.420;20.896;2023-03-14T13:48:55;11.80;1.00
21189;DHT22;39071;52.420;20.896;2023-03-14T13:51:22;11.80;1.00
21189;DHT22;39071;52.420;20.896;2023-03-14T13:53:50;11.90;1.00
21189;DHT22;39071;52.420;20.896;2023-03-14T13:56:21;11.80;1.00
21189;DHT22;39071;52.420;20.896;2023-03-14T13:58:48;11.70;1.00
21189;DHT22;39071;52.420;20.896;2023-03-14T14:03:46;11.90;1.00
21189;DHT22;39071;52.420;20.896;2023-03-14T14:06:31;11.80;1.00
21189;DHT22;39071;52.420;20.896;2023-03-14T14:08:59;11.70;1.00
21189;DHT22;39071;52.420;20.896;2023-03-14T14:11:46;11.60;1.00
21189;DHT22;39071;52.420;20.896;2023-03-14T14:14:43;11.60;99.90
21189;DHT22;39071;52.420;20.896;2023-03-14T14:17:13;11.60;99.90
21189;DHT22;39071;52.420;20.896;2023-03-14T14:19:41;11.60;99.90
21189;DHT22;39071;52.420;20.896;2023-03-14T14:22:09;11.50;99.90
21189;DHT22;39071;52.420;20.896;2023-03-14T14:24:37;11.60;99.90
21189;DHT22;39071;52.420;20.896;2023-03-14T14:27:15;11.50;99.90
21189;DHT22;39071;52.420;20.896;2023-03-14T14:29:41;11.40;1.00
21189;DHT22;39071;52.420;20.896;2023-03-14T14:34:44;11.50;1.00
21189;DHT22;39071;52.420;20.896;2023-03-14T14:39:48;11.30;1.00
21189;DHT22;39071;52.420;20.896;2023-03-14T14:42:18;11.20;99.90
21189;DHT22;39071;52.420;20.896;2023-03-14T14:44:44;11.20;98.80
21189;DHT22;39071;52.420;20.896;2023-03-14T14:47:15;11.20;99.90
21189;DHT22;39071;52.420;20.896;2023-03-14T14:49:43;11.10;1.00
21189;DHT22;39071;52.420;20.896;2023-03-14T14:54:52;11.00;99.90
21189;DHT22;39071;52.420;20.896;2023-03-14T14:57:36;11.00;99.90
21189;DHT22;39071;52.420;20.896;2023-03-14T15:00:17;10.90;1.00
21189;DHT22;39071;52.420;20.896;2023-03-14T15:02:47;10.90;1.00
21189;DHT22;39071;52.420;20.896;2023-03-14T15:05:15;10.90;1.00
21189;DHT22;39071;52.420;20.896;2023-03-14T15:07:41;10.90;1.00
21189;DHT22;39071;52.420;20.896;2023-03-14T15:10:15;10.90;99.90
21189;DHT22;39071;52.420;20.896;2023-03-14T15:12:41;10.90;99.90
21189;DHT22;39071;52.420;20.896;2023-03-14T15:15:08;10.90;99.90
21189;DHT22;39071;52.420;20.896;2023-03-14T15:17:34;10.80;1.00
21189;DHT22;39071;52.420;20.896;2023-03-14T15:20:06;10.90;1.00
21189;DHT22;39071;52.420;20.896;2023-03-14T15:22:32;10.80;99.90
21189;DHT22;39071;52.420;20.896;2023-03-14T15:24:58;10.80;1.00
21189;DHT22;39071;52.420;20.896;2023-03-14T15:27:30;10.80;1.00
21189;DHT22;39071;52.420;20.896;2023-03-14T15:29:57;10.90;99.90
21189;DHT22;39071;52.420;20.896;2023-03-14T15:32:23;11.00;99.90
21189;DHT22;39071;52.420;20.896;2023-03-14T15:34:48;10.80;1.00
21189;DHT22;39071;52.420;20.896;2023-03-14T15:37:16;10.80;1.00
21189;DHT22;39071;52.420;20.896;2023-03-14T15:39:45;10.70;1.00
21189;DHT22;39071;52.420;20.896;2023-03-14T15:42:11;10.70;99.90
21189;DHT22;39071;52.420;20.896;2023-03-14T15:44:37;10.70;1.00
21189;DHT22;39071;52.420;20.896;2023-03-14T15:47:05;10.70;21.10
21189;DHT22;39071;52.420;20.896;2023-03-14T15:49:31;10.70;1.00
21189;DHT22;39071;52.420;20.896;2023-03-14T15:51:58;10.60;1.00
21189;DHT22;39071;52.420;20.896;2023-03-14T15:54:24;10.60;1.00
21189;DHT22;39071;52.420;20.896;2023-03-14T15:56:54;10.60;1.00
21189;DHT22;39071;52.420;20.896;2023-03-14T15:59:21;10.60;99.90
21189;DHT22;39071;52.420;20.896;2023-03-14T16:01:47;10.60;99.90
21189;DHT22;39071;52.420;20.896;2023-03-14T16:04:16;10.60;40.10
21189;DHT22;39071;52.420;20.896;2023-03-14T16:06:42;10.60;99.90
21189;DHT22;39071;52.420;20.896;2023-03-14T16:09:10;10.50;99.90
21189;DHT22;39071;52.420;20.896;2023-03-14T16:11:37;10.50;99.90
21189;DHT22;39071;52.420;20.896;2023-03-14T16:14:03;10.50;99.90
21189;DHT22;39071;52.420;20.896;2023-03-14T16:16:28;10.40;99.90
21189;DHT22;39071;52.420;20.896;2023-03-14T16:18:54;10.40;99.90
21189;DHT22;39071;52.420;20.896;2023-03-14T16:21:21;10.40;1.00
21189;DHT22;39071;52.420;20.896;2023-03-14T16:23:47;10.40;99.90
21189;DHT22;39071;52.420;20.896;2023-03-14T16:26:16;10.40;99.90
21189;DHT22;39071;52.420;20.896;2023-03-14T16:28:42;10.40;99.90
21189;DHT22;39071;52.420;20.896;2023-03-14T16:31:14;10.40;99.90
21189;DHT22;39071;52.420;20.896;2023-03-14T16:33:43;10.40;99.90
21189;DHT22;39071;52.420;20.896;2023-03-14T16:36:11;10.30;1.00
21189;DHT22;39071;52.420;20.896;2023-03-14T16:38:39;10.30;1.00
21189;DHT22;39071;52.420;20.896;2023-03-14T16:41:09;10.20;1.00
21189;DHT22;39071;52.420;20.896;2023-03-14T16:43:35;10.20;1.00